createdAt,value
2019-03-16T00:02:35.154Z,99413.14
2019-03-16T00:07:39.365Z,99428.71
2019-03-16T00:12:43.695Z,99437.59
2019-03-16T00:17:47.945Z,99457.17
2019-03-16T00:22:52.278Z,99448.91
2019-03-16T00:27:56.491Z,99437.40
2019-03-16T00:33:00.729Z,99470.77
2019-03-16T00:38:04.964Z,99473.64
2019-03-16T00:43:09.222Z,99487.11
2019-03-16T00:48:13.635Z,99486.58
2019-03-16T00:53:17.877Z,99507.10
2019-03-16T00:58:22.304Z,99489.69
2019-03-16T01:03:26.589Z,99522.61
2019-03-16T01:08:30.821Z,99517.22
2019-03-16T01:13:35.046Z,99525.13
2019-03-16T01:18:39.288Z,99527.56
2019-03-16T01:23:43.510Z,99529.78
2019-03-16T01:28:47.765Z,99551.03
2019-03-16T01:33:52.033Z,99529.25
2019-03-16T01:38:56.270Z,99553.08
2019-03-16T01:44:00.517Z,99554.32
2019-03-16T01:49:04.927Z,99570.48
2019-03-16T01:54:09.173Z,99571.53
2019-03-16T01:59:13.395Z,99579.11
2019-03-16T02:04:17.614Z,99578.97
2019-03-16T02:09:21.847Z,99581.19
2019-03-16T02:14:26.080Z,99591.14
2019-03-16T02:19:30.335Z,99588.18
2019-03-16T02:24:34.600Z,99592.39
2019-03-16T02:29:38.836Z,99619.26
2019-03-16T02:34:43.070Z,99620.23
2019-03-16T02:39:47.305Z,99627.52
2019-03-16T02:44:51.534Z,99641.08
2019-03-16T02:49:55.756Z,99652.66
2019-03-16T02:54:59.997Z,99656.03
2019-03-16T03:00:05.660Z,99682.06
2019-03-16T03:05:10.246Z,99669.66
2019-03-16T03:10:14.781Z,99674.97
2019-03-16T03:15:19.009Z,99681.73
2019-03-16T03:20:23.258Z,99679.60
2019-03-16T03:25:27.476Z,99686.58
2019-03-16T03:30:31.706Z,99703.31
2019-03-16T03:35:35.930Z,99710.48
2019-03-16T03:40:40.377Z,99715.62
2019-03-16T03:45:44.624Z,99714.80
2019-03-16T03:50:48.850Z,99737.20
2019-03-16T03:55:53.076Z,99739.73
2019-03-16T04:00:58.577Z,99747.30
2019-03-16T04:06:02.821Z,99756.92
2019-03-16T04:11:07.065Z,99765.08
2019-03-16T04:16:11.283Z,99762.25
2019-03-16T04:21:15.500Z,99783.55
2019-03-16T04:26:19.723Z,99795.66
2019-03-16T04:31:23.950Z,99805.39
2019-03-16T04:36:28.196Z,99815.94
2019-03-16T04:41:32.415Z,99826.66
2019-03-16T04:46:36.636Z,99823.67
2019-03-16T04:51:40.870Z,99818.48
2019-03-16T04:56:45.092Z,99831.76
2019-03-16T05:01:49.319Z,99835.22
2019-03-16T05:06:53.605Z,99844.34
2019-03-16T05:11:57.838Z,99852.42
2019-03-16T05:17:02.254Z,99836.11
2019-03-16T05:22:06.512Z,99850.03
2019-03-16T05:27:10.790Z,99849.02
2019-03-16T05:32:15.047Z,99860.02
2019-03-16T05:37:19.267Z,99867.81
2019-03-16T05:42:23.627Z,99870.99
2019-03-16T05:47:27.899Z,99880.24
2019-03-16T05:52:32.506Z,99900.78
2019-03-16T05:57:36.745Z,99904.13
2019-03-16T06:02:40.979Z,99908.22
2019-03-16T06:07:45.197Z,99920.06
2019-03-16T06:12:49.460Z,99924.00
2019-03-16T06:17:53.705Z,99931.87
2019-03-16T06:22:57.940Z,99938.70
2019-03-16T06:28:02.164Z,99945.03
2019-03-16T06:33:06.402Z,99949.09
2019-03-16T06:38:10.657Z,99960.00
2019-03-16T06:43:14.878Z,99972.92
2019-03-16T06:48:19.107Z,99968.89
2019-03-16T06:53:23.329Z,99988.49
2019-03-16T06:58:27.567Z,99976.32
2019-03-16T07:03:31.891Z,99986.58
2019-03-16T07:08:36.124Z,99993.73
2019-03-16T07:13:40.360Z,99999.78
2019-03-16T07:18:44.606Z,99999.60
2019-03-16T07:23:48.830Z,100017.73
2019-03-16T07:28:53.055Z,100021.83
2019-03-16T07:33:57.321Z,100021.89
2019-03-16T07:39:01.547Z,100024.22
2019-03-16T07:44:05.790Z,100031.01
2019-03-16T07:49:10.029Z,100028.91
2019-03-16T07:54:14.323Z,100051.31
2019-03-16T07:59:18.563Z,100050.05
2019-03-16T08:04:22.805Z,100059.66
2019-03-16T08:09:27.044Z,100062.20
2019-03-16T08:14:31.275Z,100067.28
2019-03-16T08:19:35.621Z,100063.28
2019-03-16T08:24:39.883Z,100073.03
2019-03-16T08:29:44.200Z,100086.41
2019-03-16T08:34:48.634Z,100099.16
2019-03-16T08:39:52.980Z,100107.70
2019-03-16T08:44:57.267Z,100107.00
2019-03-16T08:50:01.668Z,100097.33
2019-03-16T08:55:06.426Z,100094.56
2019-03-16T09:00:11.115Z,100103.88
2019-03-16T09:05:15.369Z,100094.58
2019-03-16T09:10:19.595Z,100094.95
2019-03-16T09:15:24.064Z,100097.35
2019-03-16T09:20:28.314Z,100089.67
2019-03-16T09:25:32.572Z,100106.24
2019-03-16T09:30:36.941Z,100096.13
2019-03-16T09:35:41.211Z,100101.37
2019-03-16T09:40:45.492Z,100101.84
2019-03-16T09:45:49.777Z,100117.33
2019-03-16T09:50:54.015Z,100107.98
2019-03-16T09:55:58.287Z,100117.97
2019-03-16T10:01:02.909Z,100119.22
2019-03-16T10:06:07.263Z,100110.87
2019-03-16T10:11:11.524Z,100094.72
2019-03-16T10:16:15.786Z,100115.61
2019-03-16T10:21:20.129Z,100119.75
2019-03-16T10:26:24.748Z,100113.30
2019-03-16T10:31:29.007Z,100105.47
2019-03-16T10:36:33.442Z,100105.59
2019-03-16T10:41:37.689Z,100116.72
2019-03-16T10:46:41.977Z,100119.14
2019-03-16T10:51:46.233Z,100112.49
2019-03-16T10:56:50.577Z,100119.69
2019-03-16T11:01:54.841Z,100127.00
2019-03-16T11:06:59.137Z,100134.89
2019-03-16T11:12:03.359Z,100127.32
2019-03-16T11:17:07.739Z,100118.47
2019-03-16T11:22:11.972Z,100116.88
2019-03-16T11:27:17.333Z,100100.58
2019-03-16T11:32:21.706Z,100095.77
2019-03-16T11:37:25.978Z,100099.47
2019-03-16T11:42:30.231Z,100099.37
2019-03-16T11:47:34.473Z,100088.18
2019-03-16T11:52:38.727Z,100113.23
2019-03-16T11:57:42.992Z,100108.00
2019-03-16T12:02:47.239Z,100108.98
2019-03-16T12:07:51.489Z,100118.72
2019-03-16T12:12:55.740Z,100109.13
2019-03-16T12:18:00.020Z,100121.95
2019-03-16T12:23:04.289Z,100119.45
2019-03-16T12:28:08.546Z,100117.91
2019-03-16T12:33:12.835Z,100114.50
2019-03-16T12:38:17.066Z,100119.55
2019-03-16T12:43:21.315Z,100127.91
2019-03-16T12:48:25.658Z,100122.87
2019-03-16T12:53:29.928Z,100115.84
2019-03-16T12:58:34.168Z,100118.15
2019-03-16T13:03:38.411Z,100095.38
2019-03-16T13:08:42.732Z,100099.06
2019-03-16T13:13:46.974Z,100103.23
2019-03-16T13:18:51.228Z,100095.39
2019-03-16T13:23:55.469Z,100099.89
2019-03-16T13:28:59.747Z,100087.61
2019-03-16T13:34:04.205Z,100082.10
2019-03-16T13:39:08.789Z,100083.91
2019-03-16T13:44:13.005Z,100074.95
2019-03-16T13:49:17.238Z,100065.56
2019-03-16T13:54:21.467Z,100054.09
2019-03-16T13:59:25.711Z,100042.88
2019-03-16T14:04:29.958Z,100032.03
2019-03-16T14:09:34.203Z,100032.34
2019-03-16T14:14:38.881Z,100025.34
2019-03-16T14:19:43.127Z,100014.28
2019-03-16T14:24:47.369Z,99999.39
2019-03-16T14:29:52.534Z,99987.16
2019-03-16T14:34:56.757Z,99980.00
2019-03-16T14:40:01.360Z,99968.27
2019-03-16T14:45:06.713Z,99957.67
2019-03-16T14:50:16.090Z,99955.72
2019-03-16T14:55:19.562Z,99939.55
2019-03-16T15:00:37.289Z,99933.96
2019-03-16T15:05:31.503Z,99931.20
2019-03-16T15:10:35.753Z,99926.21
2019-03-16T15:15:40.033Z,99917.06
2019-03-16T15:20:44.266Z,99910.84
2019-03-16T15:25:48.509Z,99911.82
2019-03-16T15:30:52.729Z,99912.97
2019-03-16T15:35:56.967Z,99905.84
2019-03-16T15:41:01.195Z,99887.37
2019-03-16T15:46:05.450Z,99875.72
2019-03-16T15:51:09.671Z,99886.23
2019-03-16T15:56:13.907Z,99879.17
2019-03-16T16:01:18.144Z,99878.75
2019-03-16T16:06:23.315Z,99879.80
2019-03-16T16:11:27.555Z,99879.23
2019-03-16T16:16:31.825Z,99868.87
2019-03-16T16:21:36.060Z,99858.89
2019-03-16T16:26:40.291Z,99854.42
2019-03-16T16:31:44.543Z,99843.70
2019-03-16T16:36:48.771Z,99843.83
2019-03-16T16:41:53.007Z,99831.88
2019-03-16T16:46:57.269Z,99829.22
2019-03-16T16:52:01.517Z,99822.09
2019-03-16T16:57:05.772Z,99816.02
2019-03-16T17:02:10.010Z,99822.64
2019-03-16T17:07:14.324Z,99810.50
2019-03-16T17:12:18.563Z,99808.41
2019-03-16T17:17:34.711Z,99803.64
2019-03-16T17:22:28.777Z,99805.87
2019-03-16T17:27:33.009Z,99798.30
2019-03-16T17:32:37.269Z,99798.09
2019-03-16T17:37:41.516Z,99795.24
2019-03-16T17:42:45.845Z,99784.97
2019-03-16T17:47:50.084Z,99795.94
2019-03-16T17:52:54.425Z,99792.59
2019-03-16T17:57:58.679Z,99781.97
2019-03-16T18:03:02.911Z,99779.61
2019-03-16T18:08:07.155Z,99784.12
2019-03-16T18:13:11.412Z,99789.09
2019-03-16T18:18:15.648Z,99787.09
2019-03-16T18:23:19.905Z,99781.42
2019-03-16T18:28:24.151Z,99783.30
2019-03-16T18:33:28.506Z,99772.22
2019-03-16T18:38:32.746Z,99777.42
2019-03-16T18:43:36.993Z,99777.78
2019-03-16T18:48:41.267Z,99775.79
2019-03-16T18:53:45.749Z,99775.27
2019-03-16T18:58:50.101Z,99769.67
2019-03-16T19:03:54.332Z,99771.08
2019-03-16T19:08:58.795Z,99768.94
2019-03-16T19:14:03.071Z,99753.84
2019-03-16T19:19:07.345Z,99763.59
2019-03-16T19:24:12.692Z,99762.23
2019-03-16T19:29:16.984Z,99766.80
2019-03-16T19:34:21.237Z,99761.56
2019-03-16T19:39:25.569Z,99749.88
2019-03-16T19:44:29.807Z,99741.56
2019-03-16T19:49:34.293Z,99735.11
2019-03-16T19:54:38.640Z,99728.26
2019-03-16T19:59:42.919Z,99741.27
2019-03-16T20:04:47.192Z,99747.13
2019-03-16T20:09:51.444Z,99733.98
2019-03-16T20:14:55.762Z,99735.69
2019-03-16T20:20:00.081Z,99740.02
2019-03-16T20:25:04.679Z,99740.89
2019-03-16T20:30:09.509Z,99738.07
2019-03-16T20:35:13.764Z,99741.27
2019-03-16T20:40:18.065Z,99738.88
2019-03-16T20:45:22.484Z,99735.70
2019-03-16T20:50:26.918Z,99732.91
2019-03-16T20:55:34.211Z,99740.27
2019-03-16T21:00:37.178Z,99741.84
2019-03-16T21:05:41.507Z,99744.84
2019-03-16T21:10:45.852Z,99742.02
2019-03-16T21:15:50.115Z,99741.28
2019-03-16T21:20:54.402Z,99740.52
2019-03-16T21:25:58.659Z,99734.02
2019-03-16T21:31:02.946Z,99729.42
2019-03-16T21:36:07.167Z,99724.16
2019-03-16T21:41:11.420Z,99724.82
2019-03-16T21:46:15.661Z,99713.66
2019-03-16T21:51:19.909Z,99720.59
2019-03-16T21:56:24.145Z,99719.32
2019-03-16T22:01:28.389Z,99714.61
2019-03-16T22:06:32.631Z,99702.52
2019-03-16T22:11:36.860Z,99711.38
2019-03-16T22:16:41.111Z,99714.78
2019-03-16T22:21:45.337Z,99711.48
2019-03-16T22:26:49.582Z,99705.91
2019-03-16T22:31:53.815Z,99693.67
2019-03-16T22:36:58.051Z,99688.16
2019-03-16T22:42:02.398Z,99692.22
2019-03-16T22:47:06.621Z,99689.67
2019-03-16T22:52:10.872Z,99688.16
2019-03-16T22:57:15.096Z,99681.32
2019-03-16T23:02:19.367Z,99681.88
2019-03-16T23:07:23.607Z,99678.06
2019-03-16T23:12:27.861Z,99676.55
2019-03-16T23:17:32.099Z,99675.98
2019-03-16T23:22:36.428Z,99679.45
2019-03-16T23:27:40.686Z,99679.45
2019-03-16T23:32:44.922Z,99674.91
2019-03-16T23:37:49.230Z,99666.91
2019-03-16T23:42:53.458Z,99666.58
2019-03-16T23:47:57.684Z,99662.88
2019-03-16T23:53:01.927Z,99663.98
2019-03-16T23:58:06.151Z,99654.58
